<?xml version="1.0" encoding="UTF-8" standalone="no" ?>
<gpx xmlns="http://www.topografix.com/GPX/1/1" xmlns:xsi="http://www.w3.org/2001/XMLSchema-instance" xsi:schemaLocation="http://www.topografix.com/GPX/1/1 http://www.topografix.com/GPX/1/1/gpx.xsd" version="1.1" creator="VisuGPX - https://www.visugpx.com">
  <metadata>
    <name>Du village au Grand Pouvet - SILLANS LA CASCADE - 83</name>
    <desc><![CDATA[Départ du village en direction du Jas de Loubière, le Clos de Masse, le Grand Pouvet puis direction Sud/Ouest jusqu\'à la chapelle (vers le Défens) pour le pique nique. Retour par Saint Barnabé.]]></desc>
  </metadata>
  <trk>
    <name><![CDATA[11-DEC-11 15:22:39]]></name>
    <trkseg>
      <trkpt lat="43.56689" lon="6.17827">
        <ele>382.26</ele>
        <time>2011-12-11T08:10:55Z</time>
      </trkpt>
      <trkpt lat="43.56683" lon="6.17811">
        <ele>383.22</ele>
        <time>2011-12-11T08:12:41Z</time>
      </trkpt>
      <trkpt lat="43.56685" lon="6.17809">
        <ele>383.7</ele>
        <time>2011-12-11T08:13:10Z</time>
      </trkpt>
      <trkpt lat="43.56678" lon="6.17827">
        <ele>379.86</ele>
        <time>2011-12-11T08:14:28Z</time>
      </trkpt>
      <trkpt lat="43.56678" lon="6.17856">
        <ele>381.3</ele>
        <time>2011-12-11T08:14:56Z</time>
      </trkpt>
      <trkpt lat="43.56681" lon="6.17883">
        <ele>380.34</ele>
        <time>2011-12-11T08:15:17Z</time>
      </trkpt>
      <trkpt lat="43.5669" lon="6.17896">
        <ele>381.3</ele>
        <time>2011-12-11T08:15:41Z</time>
      </trkpt>
      <trkpt lat="43.567" lon="6.1792">
        <ele>382.74</ele>
        <time>2011-12-11T08:16:04Z</time>
      </trkpt>
      <trkpt lat="43.56715" lon="6.17939">
        <ele>387.07</ele>
        <time>2011-12-11T08:16:38Z</time>
      </trkpt>
      <trkpt lat="43.56732" lon="6.17941">
        <ele>387.07</ele>
        <time>2011-12-11T08:17:18Z</time>
      </trkpt>
      <trkpt lat="43.56756" lon="6.17929">
        <ele>387.55</ele>
        <time>2011-12-11T08:18:03Z</time>
      </trkpt>
      <trkpt lat="43.56772" lon="6.17912">
        <ele>387.55</ele>
        <time>2011-12-11T08:18:24Z</time>
      </trkpt>
      <trkpt lat="43.56769" lon="6.17896">
        <ele>386.59</ele>
        <time>2011-12-11T08:19:08Z</time>
      </trkpt>
      <trkpt lat="43.56789" lon="6.17917">
        <ele>382.26</ele>
        <time>2011-12-11T08:20:04Z</time>
      </trkpt>
      <trkpt lat="43.568" lon="6.17893">
        <ele>380.34</ele>
        <time>2011-12-11T08:20:31Z</time>
      </trkpt>
      <trkpt lat="43.56818" lon="6.17892">
        <ele>379.86</ele>
        <time>2011-12-11T08:21:24Z</time>
      </trkpt>
      <trkpt lat="43.56817" lon="6.17866">
        <ele>377.45</ele>
        <time>2011-12-11T08:22:02Z</time>
      </trkpt>
      <trkpt lat="43.56815" lon="6.17848">
        <ele>371.21</ele>
        <time>2011-12-11T08:22:37Z</time>
      </trkpt>
      <trkpt lat="43.5682" lon="6.1781">
        <ele>369.28</ele>
        <time>2011-12-11T08:23:30Z</time>
      </trkpt>
      <trkpt lat="43.56807" lon="6.17748">
        <ele>369.76</ele>
        <time>2011-12-11T08:24:05Z</time>
      </trkpt>
      <trkpt lat="43.56811" lon="6.17719">
        <ele>369.28</ele>
        <time>2011-12-11T08:24:33Z</time>
      </trkpt>
      <trkpt lat="43.56844" lon="6.1769">
        <ele>369.28</ele>
        <time>2011-12-11T08:25:12Z</time>
      </trkpt>
      <trkpt lat="43.56846" lon="6.17689">
        <ele>369.28</ele>
        <time>2011-12-11T08:26:11Z</time>
      </trkpt>
      <trkpt lat="43.56845" lon="6.17696">
        <ele>364.48</ele>
        <time>2011-12-11T08:38:30Z</time>
      </trkpt>
      <trkpt lat="43.56845" lon="6.17662">
        <ele>364.96</ele>
        <time>2011-12-11T08:39:01Z</time>
      </trkpt>
      <trkpt lat="43.5684" lon="6.1763">
        <ele>365.44</ele>
        <time>2011-12-11T08:39:25Z</time>
      </trkpt>
      <trkpt lat="43.56839" lon="6.17591">
        <ele>365.92</ele>
        <time>2011-12-11T08:39:44Z</time>
      </trkpt>
      <trkpt lat="43.56828" lon="6.17568">
        <ele>363.04</ele>
        <time>2011-12-11T08:39:56Z</time>
      </trkpt>
      <trkpt lat="43.56828" lon="6.17544">
        <ele>365.44</ele>
        <time>2011-12-11T08:40:13Z</time>
      </trkpt>
      <trkpt lat="43.56843" lon="6.17518">
        <ele>365.92</ele>
        <time>2011-12-11T08:40:37Z</time>
      </trkpt>
      <trkpt lat="43.56868" lon="6.17504">
        <ele>365.44</ele>
        <time>2011-12-11T08:41:05Z</time>
      </trkpt>
      <trkpt lat="43.56882" lon="6.17503">
        <ele>363.52</ele>
        <time>2011-12-11T08:41:34Z</time>
      </trkpt>
      <trkpt lat="43.56884" lon="6.17513">
        <ele>363.04</ele>
        <time>2011-12-11T08:42:27Z</time>
      </trkpt>
      <trkpt lat="43.5688" lon="6.17496">
        <ele>362.55</ele>
        <time>2011-12-11T08:42:47Z</time>
      </trkpt>
      <trkpt lat="43.56896" lon="6.17491">
        <ele>361.59</ele>
        <time>2011-12-11T08:43:13Z</time>
      </trkpt>
      <trkpt lat="43.56927" lon="6.17478">
        <ele>361.59</ele>
        <time>2011-12-11T08:43:48Z</time>
      </trkpt>
      <trkpt lat="43.56958" lon="6.17467">
        <ele>361.11</ele>
        <time>2011-12-11T08:44:19Z</time>
      </trkpt>
      <trkpt lat="43.57" lon="6.17456">
        <ele>361.59</ele>
        <time>2011-12-11T08:44:46Z</time>
      </trkpt>
      <trkpt lat="43.57038" lon="6.17451">
        <ele>361.59</ele>
        <time>2011-12-11T08:45:02Z</time>
      </trkpt>
      <trkpt lat="43.57063" lon="6.17444">
        <ele>362.07</ele>
        <time>2011-12-11T08:45:20Z</time>
      </trkpt>
      <trkpt lat="43.57085" lon="6.17437">
        <ele>362.55</ele>
        <time>2011-12-11T08:45:51Z</time>
      </trkpt>
      <trkpt lat="43.57106" lon="6.17431">
        <ele>362.55</ele>
        <time>2011-12-11T08:46:11Z</time>
      </trkpt>
      <trkpt lat="43.5713" lon="6.17422">
        <ele>362.55</ele>
        <time>2011-12-11T08:46:33Z</time>
      </trkpt>
      <trkpt lat="43.57151" lon="6.17417">
        <ele>363.04</ele>
        <time>2011-12-11T08:46:50Z</time>
      </trkpt>
      <trkpt lat="43.57172" lon="6.17409">
        <ele>363.04</ele>
        <time>2011-12-11T08:47:07Z</time>
      </trkpt>
      <trkpt lat="43.57195" lon="6.17406">
        <ele>363.52</ele>
        <time>2011-12-11T08:47:26Z</time>
      </trkpt>
      <trkpt lat="43.57213" lon="6.1739">
        <ele>364</ele>
        <time>2011-12-11T08:48:07Z</time>
      </trkpt>
      <trkpt lat="43.57245" lon="6.17386">
        <ele>365.44</ele>
        <time>2011-12-11T08:48:42Z</time>
      </trkpt>
      <trkpt lat="43.57275" lon="6.17362">
        <ele>369.28</ele>
        <time>2011-12-11T08:49:22Z</time>
      </trkpt>
      <trkpt lat="43.57297" lon="6.17343">
        <ele>368.8</ele>
        <time>2011-12-11T08:49:51Z</time>
      </trkpt>
      <trkpt lat="43.57332" lon="6.17338">
        <ele>368.32</ele>
        <time>2011-12-11T08:50:14Z</time>
      </trkpt>
      <trkpt lat="43.5735" lon="6.1733">
        <ele>368.32</ele>
        <time>2011-12-11T08:51:23Z</time>
      </trkpt>
      <trkpt lat="43.57359" lon="6.1731">
        <ele>368.32</ele>
        <time>2011-12-11T08:51:52Z</time>
      </trkpt>
      <trkpt lat="43.57372" lon="6.17279">
        <ele>369.28</ele>
        <time>2011-12-11T08:52:16Z</time>
      </trkpt>
      <trkpt lat="43.57377" lon="6.17245">
        <ele>370.73</ele>
        <time>2011-12-11T08:52:43Z</time>
      </trkpt>
      <trkpt lat="43.57379" lon="6.17217">
        <ele>372.17</ele>
        <time>2011-12-11T08:53:08Z</time>
      </trkpt>
      <trkpt lat="43.57374" lon="6.17183">
        <ele>373.13</ele>
        <time>2011-12-11T08:53:32Z</time>
      </trkpt>
      <trkpt lat="43.57375" lon="6.17152">
        <ele>373.61</ele>
        <time>2011-12-11T08:53:50Z</time>
      </trkpt>
      <trkpt lat="43.57371" lon="6.17123">
        <ele>375.05</ele>
        <time>2011-12-11T08:54:14Z</time>
      </trkpt>
      <trkpt lat="43.57343" lon="6.17093">
        <ele>376.97</ele>
        <time>2011-12-11T08:54:47Z</time>
      </trkpt>
      <trkpt lat="43.57343" lon="6.17061">
        <ele>378.42</ele>
        <time>2011-12-11T08:55:11Z</time>
      </trkpt>
      <trkpt lat="43.57359" lon="6.17042">
        <ele>378.9</ele>
        <time>2011-12-11T08:55:31Z</time>
      </trkpt>
      <trkpt lat="43.57373" lon="6.17023">
        <ele>379.38</ele>
        <time>2011-12-11T08:55:51Z</time>
      </trkpt>
      <trkpt lat="43.57374" lon="6.16994">
        <ele>381.3</ele>
        <time>2011-12-11T08:56:13Z</time>
      </trkpt>
      <trkpt lat="43.57378" lon="6.16966">
        <ele>382.74</ele>
        <time>2011-12-11T08:56:52Z</time>
      </trkpt>
      <trkpt lat="43.57386" lon="6.16954">
        <ele>384.66</ele>
        <time>2011-12-11T08:58:41Z</time>
      </trkpt>
      <trkpt lat="43.57412" lon="6.1694">
        <ele>387.55</ele>
        <time>2011-12-11T08:59:26Z</time>
      </trkpt>
      <trkpt lat="43.5743" lon="6.16935">
        <ele>390.43</ele>
        <time>2011-12-11T09:00:30Z</time>
      </trkpt>
      <trkpt lat="43.5745" lon="6.16933">
        <ele>393.32</ele>
        <time>2011-12-11T09:00:57Z</time>
      </trkpt>
      <trkpt lat="43.57451" lon="6.16908">
        <ele>395.72</ele>
        <time>2011-12-11T09:01:20Z</time>
      </trkpt>
      <trkpt lat="43.57464" lon="6.16886">
        <ele>397.64</ele>
        <time>2011-12-11T09:02:10Z</time>
      </trkpt>
      <trkpt lat="43.57486" lon="6.16868">
        <ele>401.01</ele>
        <time>2011-12-11T09:02:40Z</time>
      </trkpt>
      <trkpt lat="43.57509" lon="6.1687">
        <ele>403.89</ele>
        <time>2011-12-11T09:03:08Z</time>
      </trkpt>
      <trkpt lat="43.57526" lon="6.16889">
        <ele>405.33</ele>
        <time>2011-12-11T09:03:30Z</time>
      </trkpt>
      <trkpt lat="43.57547" lon="6.1689">
        <ele>406.29</ele>
        <time>2011-12-11T09:03:53Z</time>
      </trkpt>
      <trkpt lat="43.57568" lon="6.16883">
        <ele>406.29</ele>
        <time>2011-12-11T09:04:18Z</time>
      </trkpt>
      <trkpt lat="43.5759" lon="6.16871">
        <ele>404.37</ele>
        <time>2011-12-11T09:04:56Z</time>
      </trkpt>
      <trkpt lat="43.57604" lon="6.16845">
        <ele>405.33</ele>
        <time>2011-12-11T09:05:40Z</time>
      </trkpt>
      <trkpt lat="43.57615" lon="6.16821">
        <ele>405.81</ele>
        <time>2011-12-11T09:06:12Z</time>
      </trkpt>
      <trkpt lat="43.5763" lon="6.168">
        <ele>406.29</ele>
        <time>2011-12-11T09:06:31Z</time>
      </trkpt>
      <trkpt lat="43.57634" lon="6.16767">
        <ele>407.26</ele>
        <time>2011-12-11T09:06:59Z</time>
      </trkpt>
      <trkpt lat="43.57648" lon="6.16736">
        <ele>408.22</ele>
        <time>2011-12-11T09:07:38Z</time>
      </trkpt>
      <trkpt lat="43.57665" lon="6.16708">
        <ele>409.18</ele>
        <time>2011-12-11T09:08:01Z</time>
      </trkpt>
      <trkpt lat="43.57678" lon="6.16682">
        <ele>410.14</ele>
        <time>2011-12-11T09:08:22Z</time>
      </trkpt>
      <trkpt lat="43.57689" lon="6.1666">
        <ele>411.1</ele>
        <time>2011-12-11T09:08:52Z</time>
      </trkpt>
      <trkpt lat="43.577" lon="6.16637">
        <ele>411.58</ele>
        <time>2011-12-11T09:09:22Z</time>
      </trkpt>
      <trkpt lat="43.57712" lon="6.16611">
        <ele>412.54</ele>
        <time>2011-12-11T09:09:42Z</time>
      </trkpt>
      <trkpt lat="43.57726" lon="6.16591">
        <ele>413.5</ele>
        <time>2011-12-11T09:10:03Z</time>
      </trkpt>
      <trkpt lat="43.57745" lon="6.16569">
        <ele>414.95</ele>
        <time>2011-12-11T09:10:28Z</time>
      </trkpt>
      <trkpt lat="43.57761" lon="6.16549">
        <ele>416.87</ele>
        <time>2011-12-11T09:11:02Z</time>
      </trkpt>
      <trkpt lat="43.57764" lon="6.16529">
        <ele>417.35</ele>
        <time>2011-12-11T09:12:06Z</time>
      </trkpt>
      <trkpt lat="43.57764" lon="6.16498">
        <ele>418.31</ele>
        <time>2011-12-11T09:12:27Z</time>
      </trkpt>
      <trkpt lat="43.57758" lon="6.16472">
        <ele>419.27</ele>
        <time>2011-12-11T09:12:46Z</time>
      </trkpt>
      <trkpt lat="43.57748" lon="6.1645">
        <ele>421.68</ele>
        <time>2011-12-11T09:16:43Z</time>
      </trkpt>
      <trkpt lat="43.57752" lon="6.16418">
        <ele>424.08</ele>
        <time>2011-12-11T09:17:08Z</time>
      </trkpt>
      <trkpt lat="43.57756" lon="6.1639">
        <ele>426.48</ele>
        <time>2011-12-11T09:17:32Z</time>
      </trkpt>
      <trkpt lat="43.57762" lon="6.16359">
        <ele>428.89</ele>
        <time>2011-12-11T09:18:00Z</time>
      </trkpt>
      <trkpt lat="43.57769" lon="6.16333">
        <ele>428.89</ele>
        <time>2011-12-11T09:18:21Z</time>
      </trkpt>
      <trkpt lat="43.57777" lon="6.16307">
        <ele>428.89</ele>
        <time>2011-12-11T09:18:41Z</time>
      </trkpt>
      <trkpt lat="43.57781" lon="6.16278">
        <ele>428.89</ele>
        <time>2011-12-11T09:19:05Z</time>
      </trkpt>
      <trkpt lat="43.57782" lon="6.16248">
        <ele>429.37</ele>
        <time>2011-12-11T09:19:26Z</time>
      </trkpt>
      <trkpt lat="43.57787" lon="6.16221">
        <ele>429.85</ele>
        <time>2011-12-11T09:19:47Z</time>
      </trkpt>
      <trkpt lat="43.57792" lon="6.16191">
        <ele>430.81</ele>
        <time>2011-12-11T09:20:09Z</time>
      </trkpt>
      <trkpt lat="43.57801" lon="6.16164">
        <ele>431.77</ele>
        <time>2011-12-11T09:20:33Z</time>
      </trkpt>
      <trkpt lat="43.57817" lon="6.16137">
        <ele>432.73</ele>
        <time>2011-12-11T09:21:00Z</time>
      </trkpt>
      <trkpt lat="43.57832" lon="6.16118">
        <ele>433.21</ele>
        <time>2011-12-11T09:21:22Z</time>
      </trkpt>
      <trkpt lat="43.57846" lon="6.161">
        <ele>434.17</ele>
        <time>2011-12-11T09:23:09Z</time>
      </trkpt>
      <trkpt lat="43.57869" lon="6.16077">
        <ele>435.13</ele>
        <time>2011-12-11T09:23:41Z</time>
      </trkpt>
      <trkpt lat="43.57891" lon="6.16065">
        <ele>436.1</ele>
        <time>2011-12-11T09:24:04Z</time>
      </trkpt>
      <trkpt lat="43.5791" lon="6.16053">
        <ele>437.06</ele>
        <time>2011-12-11T09:24:25Z</time>
      </trkpt>
      <trkpt lat="43.57928" lon="6.16041">
        <ele>438.02</ele>
        <time>2011-12-11T09:24:46Z</time>
      </trkpt>
      <trkpt lat="43.5795" lon="6.16032">
        <ele>439.46</ele>
        <time>2011-12-11T09:25:09Z</time>
      </trkpt>
      <trkpt lat="43.57972" lon="6.16014">
        <ele>439.94</ele>
        <time>2011-12-11T09:25:33Z</time>
      </trkpt>
      <trkpt lat="43.57992" lon="6.16">
        <ele>440.9</ele>
        <time>2011-12-11T09:26:00Z</time>
      </trkpt>
      <trkpt lat="43.58019" lon="6.15992">
        <ele>442.34</ele>
        <time>2011-12-11T09:26:29Z</time>
      </trkpt>
      <trkpt lat="43.58037" lon="6.15988">
        <ele>442.82</ele>
        <time>2011-12-11T09:27:17Z</time>
      </trkpt>
      <trkpt lat="43.58048" lon="6.15973">
        <ele>443.79</ele>
        <time>2011-12-11T09:28:59Z</time>
      </trkpt>
      <trkpt lat="43.58055" lon="6.15949">
        <ele>445.71</ele>
        <time>2011-12-11T09:30:05Z</time>
      </trkpt>
      <trkpt lat="43.58047" lon="6.15916">
        <ele>446.19</ele>
        <time>2011-12-11T09:30:34Z</time>
      </trkpt>
      <trkpt lat="43.58036" lon="6.15888">
        <ele>446.67</ele>
        <time>2011-12-11T09:31:02Z</time>
      </trkpt>
      <trkpt lat="43.5802" lon="6.15867">
        <ele>449.07</ele>
        <time>2011-12-11T09:31:23Z</time>
      </trkpt>
      <trkpt lat="43.58003" lon="6.15849">
        <ele>450.03</ele>
        <time>2011-12-11T09:31:49Z</time>
      </trkpt>
      <trkpt lat="43.57984" lon="6.15841">
        <ele>451.48</ele>
        <time>2011-12-11T09:32:16Z</time>
      </trkpt>
      <trkpt lat="43.57959" lon="6.15812">
        <ele>450.03</ele>
        <time>2011-12-11T09:32:55Z</time>
      </trkpt>
      <trkpt lat="43.57951" lon="6.15778">
        <ele>450.52</ele>
        <time>2011-12-11T09:33:26Z</time>
      </trkpt>
      <trkpt lat="43.57942" lon="6.15746">
        <ele>451.96</ele>
        <time>2011-12-11T09:33:57Z</time>
      </trkpt>
      <trkpt lat="43.5793" lon="6.15711">
        <ele>452.44</ele>
        <time>2011-12-11T09:34:16Z</time>
      </trkpt>
      <trkpt lat="43.57926" lon="6.15681">
        <ele>452.44</ele>
        <time>2011-12-11T09:34:39Z</time>
      </trkpt>
      <trkpt lat="43.57918" lon="6.15646">
        <ele>452.92</ele>
        <time>2011-12-11T09:35:08Z</time>
      </trkpt>
      <trkpt lat="43.57912" lon="6.15615">
        <ele>454.36</ele>
        <time>2011-12-11T09:35:33Z</time>
      </trkpt>
      <trkpt lat="43.57902" lon="6.1558">
        <ele>454.36</ele>
        <time>2011-12-11T09:36:07Z</time>
      </trkpt>
      <trkpt lat="43.57893" lon="6.15534">
        <ele>453.4</ele>
        <time>2011-12-11T09:36:40Z</time>
      </trkpt>
      <trkpt lat="43.57886" lon="6.1551">
        <ele>454.84</ele>
        <time>2011-12-11T09:37:20Z</time>
      </trkpt>
      <trkpt lat="43.57884" lon="6.15476">
        <ele>456.76</ele>
        <time>2011-12-11T09:37:45Z</time>
      </trkpt>
      <trkpt lat="43.57884" lon="6.15442">
        <ele>455.8</ele>
        <time>2011-12-11T09:38:08Z</time>
      </trkpt>
      <trkpt lat="43.57882" lon="6.15413">
        <ele>455.32</ele>
        <time>2011-12-11T09:38:33Z</time>
      </trkpt>
      <trkpt lat="43.57883" lon="6.15384">
        <ele>455.32</ele>
        <time>2011-12-11T09:38:59Z</time>
      </trkpt>
      <trkpt lat="43.5789" lon="6.15345">
        <ele>455.8</ele>
        <time>2011-12-11T09:39:20Z</time>
      </trkpt>
      <trkpt lat="43.57884" lon="6.15315">
        <ele>455.8</ele>
        <time>2011-12-11T09:39:45Z</time>
      </trkpt>
      <trkpt lat="43.57881" lon="6.15287">
        <ele>455.8</ele>
        <time>2011-12-11T09:40:07Z</time>
      </trkpt>
      <trkpt lat="43.5788" lon="6.15257">
        <ele>455.8</ele>
        <time>2011-12-11T09:40:29Z</time>
      </trkpt>
      <trkpt lat="43.57875" lon="6.15232">
        <ele>455.32</ele>
        <time>2011-12-11T09:41:08Z</time>
      </trkpt>
      <trkpt lat="43.57881" lon="6.15197">
        <ele>456.76</ele>
        <time>2011-12-11T09:41:35Z</time>
      </trkpt>
      <trkpt lat="43.5788" lon="6.15166">
        <ele>456.76</ele>
        <time>2011-12-11T09:41:58Z</time>
      </trkpt>
      <trkpt lat="43.57879" lon="6.15134">
        <ele>457.24</ele>
        <time>2011-12-11T09:42:21Z</time>
      </trkpt>
      <trkpt lat="43.57875" lon="6.15096">
        <ele>457.72</ele>
        <time>2011-12-11T09:42:43Z</time>
      </trkpt>
      <trkpt lat="43.57875" lon="6.15067">
        <ele>458.21</ele>
        <time>2011-12-11T09:43:05Z</time>
      </trkpt>
      <trkpt lat="43.57875" lon="6.15038">
        <ele>458.69</ele>
        <time>2011-12-11T09:43:27Z</time>
      </trkpt>
      <trkpt lat="43.57877" lon="6.15002">
        <ele>457.72</ele>
        <time>2011-12-11T09:43:54Z</time>
      </trkpt>
      <trkpt lat="43.57875" lon="6.14974">
        <ele>458.69</ele>
        <time>2011-12-11T09:44:17Z</time>
      </trkpt>
      <trkpt lat="43.5788" lon="6.14937">
        <ele>459.65</ele>
        <time>2011-12-11T09:44:42Z</time>
      </trkpt>
      <trkpt lat="43.57883" lon="6.14908">
        <ele>460.13</ele>
        <time>2011-12-11T09:45:19Z</time>
      </trkpt>
      <trkpt lat="43.57886" lon="6.14877">
        <ele>460.61</ele>
        <time>2011-12-11T09:45:49Z</time>
      </trkpt>
      <trkpt lat="43.57891" lon="6.14847">
        <ele>460.13</ele>
        <time>2011-12-11T09:46:10Z</time>
      </trkpt>
      <trkpt lat="43.57889" lon="6.14822">
        <ele>460.61</ele>
        <time>2011-12-11T09:47:28Z</time>
      </trkpt>
      <trkpt lat="43.57886" lon="6.14824">
        <ele>460.13</ele>
        <time>2011-12-11T09:48:33Z</time>
      </trkpt>
      <trkpt lat="43.57888" lon="6.14822">
        <ele>460.13</ele>
        <time>2011-12-11T09:50:37Z</time>
      </trkpt>
      <trkpt lat="43.57892" lon="6.14803">
        <ele>460.13</ele>
        <time>2011-12-11T09:51:40Z</time>
      </trkpt>
      <trkpt lat="43.57897" lon="6.14768">
        <ele>460.61</ele>
        <time>2011-12-11T09:52:09Z</time>
      </trkpt>
      <trkpt lat="43.57901" lon="6.14732">
        <ele>460.61</ele>
        <time>2011-12-11T09:52:38Z</time>
      </trkpt>
      <trkpt lat="43.57902" lon="6.14703">
        <ele>459.17</ele>
        <time>2011-12-11T09:53:17Z</time>
      </trkpt>
      <trkpt lat="43.57897" lon="6.14652">
        <ele>460.61</ele>
        <time>2011-12-11T09:53:57Z</time>
      </trkpt>
      <trkpt lat="43.57888" lon="6.14613">
        <ele>461.09</ele>
        <time>2011-12-11T09:54:24Z</time>
      </trkpt>
      <trkpt lat="43.5788" lon="6.14571">
        <ele>460.61</ele>
        <time>2011-12-11T09:54:50Z</time>
      </trkpt>
      <trkpt lat="43.57878" lon="6.14538">
        <ele>461.57</ele>
        <time>2011-12-11T09:55:18Z</time>
      </trkpt>
      <trkpt lat="43.57872" lon="6.14503">
        <ele>461.09</ele>
        <time>2011-12-11T09:55:49Z</time>
      </trkpt>
      <trkpt lat="43.57864" lon="6.14464">
        <ele>458.21</ele>
        <time>2011-12-11T09:56:15Z</time>
      </trkpt>
      <trkpt lat="43.57858" lon="6.14425">
        <ele>459.65</ele>
        <time>2011-12-11T09:56:45Z</time>
      </trkpt>
      <trkpt lat="43.57851" lon="6.14394">
        <ele>459.65</ele>
        <time>2011-12-11T09:57:21Z</time>
      </trkpt>
      <trkpt lat="43.57837" lon="6.14368">
        <ele>459.65</ele>
        <time>2011-12-11T09:57:45Z</time>
      </trkpt>
      <trkpt lat="43.57823" lon="6.14351">
        <ele>460.13</ele>
        <time>2011-12-11T09:58:07Z</time>
      </trkpt>
      <trkpt lat="43.57819" lon="6.14321">
        <ele>460.61</ele>
        <time>2011-12-11T09:58:33Z</time>
      </trkpt>
      <trkpt lat="43.57814" lon="6.1431">
        <ele>460.13</ele>
        <time>2011-12-11T09:59:23Z</time>
      </trkpt>
      <trkpt lat="43.57802" lon="6.14276">
        <ele>459.17</ele>
        <time>2011-12-11T10:00:05Z</time>
      </trkpt>
      <trkpt lat="43.5779" lon="6.14239">
        <ele>459.17</ele>
        <time>2011-12-11T10:00:40Z</time>
      </trkpt>
      <trkpt lat="43.57779" lon="6.14203">
        <ele>458.69</ele>
        <time>2011-12-11T10:01:10Z</time>
      </trkpt>
      <trkpt lat="43.57769" lon="6.14171">
        <ele>458.21</ele>
        <time>2011-12-11T10:01:59Z</time>
      </trkpt>
      <trkpt lat="43.57756" lon="6.14137">
        <ele>458.69</ele>
        <time>2011-12-11T10:02:29Z</time>
      </trkpt>
      <trkpt lat="43.57742" lon="6.14098">
        <ele>458.69</ele>
        <time>2011-12-11T10:02:58Z</time>
      </trkpt>
      <trkpt lat="43.5773" lon="6.14072">
        <ele>458.21</ele>
        <time>2011-12-11T10:03:23Z</time>
      </trkpt>
      <trkpt lat="43.57718" lon="6.14042">
        <ele>458.69</ele>
        <time>2011-12-11T10:03:45Z</time>
      </trkpt>
      <trkpt lat="43.57709" lon="6.1401">
        <ele>459.17</ele>
        <time>2011-12-11T10:04:09Z</time>
      </trkpt>
      <trkpt lat="43.57695" lon="6.13978">
        <ele>459.65</ele>
        <time>2011-12-11T10:04:40Z</time>
      </trkpt>
      <trkpt lat="43.57691" lon="6.13956">
        <ele>460.13</ele>
        <time>2011-12-11T10:06:02Z</time>
      </trkpt>
      <trkpt lat="43.57696" lon="6.1393">
        <ele>460.61</ele>
        <time>2011-12-11T10:06:22Z</time>
      </trkpt>
      <trkpt lat="43.57701" lon="6.13907">
        <ele>460.13</ele>
        <time>2011-12-11T10:06:50Z</time>
      </trkpt>
      <trkpt lat="43.57722" lon="6.13889">
        <ele>459.17</ele>
        <time>2011-12-11T10:07:13Z</time>
      </trkpt>
      <trkpt lat="43.57732" lon="6.13855">
        <ele>457.24</ele>
        <time>2011-12-11T10:07:36Z</time>
      </trkpt>
      <trkpt lat="43.57742" lon="6.13827">
        <ele>455.8</ele>
        <time>2011-12-11T10:07:58Z</time>
      </trkpt>
      <trkpt lat="43.57753" lon="6.13796">
        <ele>454.84</ele>
        <time>2011-12-11T10:08:22Z</time>
      </trkpt>
      <trkpt lat="43.57765" lon="6.13765">
        <ele>452.92</ele>
        <time>2011-12-11T10:08:47Z</time>
      </trkpt>
      <trkpt lat="43.57774" lon="6.13735">
        <ele>450.52</ele>
        <time>2011-12-11T10:09:13Z</time>
      </trkpt>
      <trkpt lat="43.57782" lon="6.13701">
        <ele>446.67</ele>
        <time>2011-12-11T10:09:51Z</time>
      </trkpt>
      <trkpt lat="43.5779" lon="6.13661">
        <ele>443.79</ele>
        <time>2011-12-11T10:10:32Z</time>
      </trkpt>
      <trkpt lat="43.57799" lon="6.13616">
        <ele>442.34</ele>
        <time>2011-12-11T10:11:07Z</time>
      </trkpt>
      <trkpt lat="43.57804" lon="6.1358">
        <ele>441.86</ele>
        <time>2011-12-11T10:11:53Z</time>
      </trkpt>
      <trkpt lat="43.5781" lon="6.1354">
        <ele>441.38</ele>
        <time>2011-12-11T10:12:23Z</time>
      </trkpt>
      <trkpt lat="43.57816" lon="6.13505">
        <ele>440.9</ele>
        <time>2011-12-11T10:13:07Z</time>
      </trkpt>
      <trkpt lat="43.57827" lon="6.13459">
        <ele>440.9</ele>
        <time>2011-12-11T10:13:45Z</time>
      </trkpt>
      <trkpt lat="43.57848" lon="6.13425">
        <ele>440.9</ele>
        <time>2011-12-11T10:14:20Z</time>
      </trkpt>
      <trkpt lat="43.57861" lon="6.13393">
        <ele>440.42</ele>
        <time>2011-12-11T10:14:46Z</time>
      </trkpt>
      <trkpt lat="43.57867" lon="6.13358">
        <ele>439.46</ele>
        <time>2011-12-11T10:15:13Z</time>
      </trkpt>
      <trkpt lat="43.57874" lon="6.13327">
        <ele>439.46</ele>
        <time>2011-12-11T10:15:42Z</time>
      </trkpt>
      <trkpt lat="43.57874" lon="6.13286">
        <ele>439.46</ele>
        <time>2011-12-11T10:16:24Z</time>
      </trkpt>
      <trkpt lat="43.57877" lon="6.13249">
        <ele>439.94</ele>
        <time>2011-12-11T10:16:53Z</time>
      </trkpt>
      <trkpt lat="43.57877" lon="6.13216">
        <ele>440.42</ele>
        <time>2011-12-11T10:17:18Z</time>
      </trkpt>
      <trkpt lat="43.57877" lon="6.13184">
        <ele>441.38</ele>
        <time>2011-12-11T10:17:43Z</time>
      </trkpt>
      <trkpt lat="43.57879" lon="6.13149">
        <ele>440.42</ele>
        <time>2011-12-11T10:18:08Z</time>
      </trkpt>
      <trkpt lat="43.57886" lon="6.13121">
        <ele>439.46</ele>
        <time>2011-12-11T10:18:29Z</time>
      </trkpt>
      <trkpt lat="43.5789" lon="6.13094">
        <ele>437.54</ele>
        <time>2011-12-11T10:18:54Z</time>
      </trkpt>
      <trkpt lat="43.57899" lon="6.13061">
        <ele>436.58</ele>
        <time>2011-12-11T10:19:21Z</time>
      </trkpt>
      <trkpt lat="43.57898" lon="6.13045">
        <ele>436.58</ele>
        <time>2011-12-11T10:20:03Z</time>
      </trkpt>
      <trkpt lat="43.57879" lon="6.1304">
        <ele>438.02</ele>
        <time>2011-12-11T10:20:27Z</time>
      </trkpt>
      <trkpt lat="43.57878" lon="6.1303">
        <ele>437.54</ele>
        <time>2011-12-11T10:22:55Z</time>
      </trkpt>
      <trkpt lat="43.57873" lon="6.13">
        <ele>438.98</ele>
        <time>2011-12-11T10:24:07Z</time>
      </trkpt>
      <trkpt lat="43.57871" lon="6.1297">
        <ele>440.42</ele>
        <time>2011-12-11T10:24:41Z</time>
      </trkpt>
      <trkpt lat="43.57865" lon="6.12935">
        <ele>440.42</ele>
        <time>2011-12-11T10:25:23Z</time>
      </trkpt>
      <trkpt lat="43.57858" lon="6.1289">
        <ele>440.42</ele>
        <time>2011-12-11T10:25:56Z</time>
      </trkpt>
      <trkpt lat="43.57856" lon="6.1285">
        <ele>440.42</ele>
        <time>2011-12-11T10:26:28Z</time>
      </trkpt>
      <trkpt lat="43.57867" lon="6.12812">
        <ele>441.38</ele>
        <time>2011-12-11T10:26:58Z</time>
      </trkpt>
      <trkpt lat="43.57877" lon="6.12785">
        <ele>442.34</ele>
        <time>2011-12-11T10:27:22Z</time>
      </trkpt>
      <trkpt lat="43.57877" lon="6.12752">
        <ele>442.34</ele>
        <time>2011-12-11T10:27:44Z</time>
      </trkpt>
      <trkpt lat="43.57881" lon="6.12718">
        <ele>444.27</ele>
        <time>2011-12-11T10:28:16Z</time>
      </trkpt>
      <trkpt lat="43.57881" lon="6.12693">
        <ele>444.75</ele>
        <time>2011-12-11T10:29:07Z</time>
      </trkpt>
      <trkpt lat="43.57882" lon="6.12655">
        <ele>446.19</ele>
        <time>2011-12-11T10:29:39Z</time>
      </trkpt>
      <trkpt lat="43.57872" lon="6.12615">
        <ele>445.71</ele>
        <time>2011-12-11T10:30:10Z</time>
      </trkpt>
      <trkpt lat="43.57859" lon="6.12589">
        <ele>446.19</ele>
        <time>2011-12-11T10:30:37Z</time>
      </trkpt>
      <trkpt lat="43.57854" lon="6.12554">
        <ele>447.63</ele>
        <time>2011-12-11T10:31:05Z</time>
      </trkpt>
      <trkpt lat="43.57847" lon="6.1252">
        <ele>448.11</ele>
        <time>2011-12-11T10:31:35Z</time>
      </trkpt>
      <trkpt lat="43.57834" lon="6.12496">
        <ele>448.11</ele>
        <time>2011-12-11T10:31:59Z</time>
      </trkpt>
      <trkpt lat="43.57827" lon="6.12464">
        <ele>448.59</ele>
        <time>2011-12-11T10:32:39Z</time>
      </trkpt>
      <trkpt lat="43.57825" lon="6.12428">
        <ele>450.03</ele>
        <time>2011-12-11T10:33:16Z</time>
      </trkpt>
      <trkpt lat="43.57814" lon="6.12387">
        <ele>449.55</ele>
        <time>2011-12-11T10:33:44Z</time>
      </trkpt>
      <trkpt lat="43.57806" lon="6.12359">
        <ele>448.59</ele>
        <time>2011-12-11T10:34:16Z</time>
      </trkpt>
      <trkpt lat="43.57799" lon="6.12316">
        <ele>449.07</ele>
        <time>2011-12-11T10:34:48Z</time>
      </trkpt>
      <trkpt lat="43.57798" lon="6.12283">
        <ele>447.15</ele>
        <time>2011-12-11T10:35:15Z</time>
      </trkpt>
      <trkpt lat="43.57803" lon="6.12246">
        <ele>447.15</ele>
        <time>2011-12-11T10:35:40Z</time>
      </trkpt>
      <trkpt lat="43.57802" lon="6.12206">
        <ele>447.63</ele>
        <time>2011-12-11T10:36:09Z</time>
      </trkpt>
      <trkpt lat="43.57801" lon="6.12174">
        <ele>450.03</ele>
        <time>2011-12-11T10:36:34Z</time>
      </trkpt>
      <trkpt lat="43.57806" lon="6.12142">
        <ele>451.48</ele>
        <time>2011-12-11T10:37:04Z</time>
      </trkpt>
      <trkpt lat="43.57806" lon="6.12133">
        <ele>451.48</ele>
        <time>2011-12-11T10:38:48Z</time>
      </trkpt>
      <trkpt lat="43.57823" lon="6.12109">
        <ele>452.44</ele>
        <time>2011-12-11T10:39:17Z</time>
      </trkpt>
      <trkpt lat="43.57835" lon="6.12086">
        <ele>452.92</ele>
        <time>2011-12-11T10:39:41Z</time>
      </trkpt>
      <trkpt lat="43.57852" lon="6.12058">
        <ele>453.88</ele>
        <time>2011-12-11T10:40:24Z</time>
      </trkpt>
      <trkpt lat="43.57855" lon="6.12055">
        <ele>453.88</ele>
        <time>2011-12-11T10:41:32Z</time>
      </trkpt>
      <trkpt lat="43.57855" lon="6.12022">
        <ele>452.92</ele>
        <time>2011-12-11T10:41:53Z</time>
      </trkpt>
      <trkpt lat="43.57855" lon="6.11991">
        <ele>451.96</ele>
        <time>2011-12-11T10:42:39Z</time>
      </trkpt>
      <trkpt lat="43.57861" lon="6.1196">
        <ele>451.96</ele>
        <time>2011-12-11T10:44:03Z</time>
      </trkpt>
      <trkpt lat="43.57861" lon="6.11933">
        <ele>451.96</ele>
        <time>2011-12-11T10:44:33Z</time>
      </trkpt>
      <trkpt lat="43.5786" lon="6.11889">
        <ele>452.92</ele>
        <time>2011-12-11T10:45:03Z</time>
      </trkpt>
      <trkpt lat="43.57862" lon="6.11861">
        <ele>453.88</ele>
        <time>2011-12-11T10:45:40Z</time>
      </trkpt>
      <trkpt lat="43.57874" lon="6.11816">
        <ele>453.88</ele>
        <time>2011-12-11T10:46:45Z</time>
      </trkpt>
      <trkpt lat="43.57859" lon="6.11781">
        <ele>452.92</ele>
        <time>2011-12-11T10:47:15Z</time>
      </trkpt>
      <trkpt lat="43.57845" lon="6.11735">
        <ele>452.44</ele>
        <time>2011-12-11T10:47:46Z</time>
      </trkpt>
      <trkpt lat="43.57837" lon="6.117">
        <ele>451</ele>
        <time>2011-12-11T10:48:20Z</time>
      </trkpt>
      <trkpt lat="43.57831" lon="6.11665">
        <ele>450.03</ele>
        <time>2011-12-11T10:48:50Z</time>
      </trkpt>
      <trkpt lat="43.57813" lon="6.1163">
        <ele>449.07</ele>
        <time>2011-12-11T10:49:20Z</time>
      </trkpt>
      <trkpt lat="43.57783" lon="6.11615">
        <ele>448.59</ele>
        <time>2011-12-11T10:49:46Z</time>
      </trkpt>
      <trkpt lat="43.57749" lon="6.11587">
        <ele>448.59</ele>
        <time>2011-12-11T10:50:09Z</time>
      </trkpt>
      <trkpt lat="43.57727" lon="6.11552">
        <ele>450.03</ele>
        <time>2011-12-11T10:50:44Z</time>
      </trkpt>
      <trkpt lat="43.57733" lon="6.115">
        <ele>450.52</ele>
        <time>2011-12-11T10:51:29Z</time>
      </trkpt>
      <trkpt lat="43.57739" lon="6.11459">
        <ele>452.44</ele>
        <time>2011-12-11T10:52:13Z</time>
      </trkpt>
      <trkpt lat="43.5774" lon="6.11424">
        <ele>452.92</ele>
        <time>2011-12-11T10:52:47Z</time>
      </trkpt>
      <trkpt lat="43.57745" lon="6.11355">
        <ele>452.92</ele>
        <time>2011-12-11T10:53:11Z</time>
      </trkpt>
      <trkpt lat="43.57742" lon="6.11308">
        <ele>452.92</ele>
        <time>2011-12-11T10:53:36Z</time>
      </trkpt>
      <trkpt lat="43.57744" lon="6.1128">
        <ele>452.92</ele>
        <time>2011-12-11T10:54:23Z</time>
      </trkpt>
      <trkpt lat="43.57737" lon="6.11244">
        <ele>453.4</ele>
        <time>2011-12-11T10:55:03Z</time>
      </trkpt>
      <trkpt lat="43.57726" lon="6.11208">
        <ele>453.88</ele>
        <time>2011-12-11T10:55:32Z</time>
      </trkpt>
      <trkpt lat="43.57702" lon="6.112">
        <ele>453.4</ele>
        <time>2011-12-11T10:56:02Z</time>
      </trkpt>
      <trkpt lat="43.57679" lon="6.11196">
        <ele>452.92</ele>
        <time>2011-12-11T10:56:30Z</time>
      </trkpt>
      <trkpt lat="43.57659" lon="6.11202">
        <ele>451</ele>
        <time>2011-12-11T10:57:02Z</time>
      </trkpt>
      <trkpt lat="43.57631" lon="6.112">
        <ele>448.59</ele>
        <time>2011-12-11T10:57:38Z</time>
      </trkpt>
      <trkpt lat="43.57609" lon="6.11208">
        <ele>447.15</ele>
        <time>2011-12-11T10:57:59Z</time>
      </trkpt>
      <trkpt lat="43.57587" lon="6.11227">
        <ele>446.67</ele>
        <time>2011-12-11T10:58:32Z</time>
      </trkpt>
      <trkpt lat="43.57549" lon="6.11233">
        <ele>446.67</ele>
        <time>2011-12-11T10:58:57Z</time>
      </trkpt>
      <trkpt lat="43.57552" lon="6.11218">
        <ele>446.19</ele>
        <time>2011-12-11T10:59:28Z</time>
      </trkpt>
      <trkpt lat="43.57553" lon="6.1118">
        <ele>445.23</ele>
        <time>2011-12-11T11:00:05Z</time>
      </trkpt>
      <trkpt lat="43.57548" lon="6.11126">
        <ele>444.27</ele>
        <time>2011-12-11T11:00:32Z</time>
      </trkpt>
      <trkpt lat="43.57539" lon="6.11088">
        <ele>443.31</ele>
        <time>2011-12-11T11:01:02Z</time>
      </trkpt>
      <trkpt lat="43.57542" lon="6.11069">
        <ele>442.82</ele>
        <time>2011-12-11T11:01:44Z</time>
      </trkpt>
      <trkpt lat="43.57539" lon="6.11007">
        <ele>442.34</ele>
        <time>2011-12-11T11:02:15Z</time>
      </trkpt>
      <trkpt lat="43.57539" lon="6.10983">
        <ele>441.86</ele>
        <time>2011-12-11T11:03:03Z</time>
      </trkpt>
      <trkpt lat="43.57527" lon="6.1096">
        <ele>440.9</ele>
        <time>2011-12-11T11:03:40Z</time>
      </trkpt>
      <trkpt lat="43.57502" lon="6.10931">
        <ele>440.42</ele>
        <time>2011-12-11T11:04:53Z</time>
      </trkpt>
      <trkpt lat="43.57482" lon="6.10904">
        <ele>439.94</ele>
        <time>2011-12-11T11:05:49Z</time>
      </trkpt>
      <trkpt lat="43.57467" lon="6.1089">
        <ele>439.46</ele>
        <time>2011-12-11T11:06:30Z</time>
      </trkpt>
      <trkpt lat="43.5744" lon="6.10857">
        <ele>439.94</ele>
        <time>2011-12-11T11:07:04Z</time>
      </trkpt>
      <trkpt lat="43.57431" lon="6.10841">
        <ele>440.42</ele>
        <time>2011-12-11T11:08:29Z</time>
      </trkpt>
      <trkpt lat="43.57412" lon="6.10802">
        <ele>442.34</ele>
        <time>2011-12-11T11:08:55Z</time>
      </trkpt>
      <trkpt lat="43.57381" lon="6.1079">
        <ele>445.23</ele>
        <time>2011-12-11T11:09:26Z</time>
      </trkpt>
      <trkpt lat="43.57361" lon="6.10797">
        <ele>448.11</ele>
        <time>2011-12-11T11:09:58Z</time>
      </trkpt>
      <trkpt lat="43.57338" lon="6.10803">
        <ele>452.44</ele>
        <time>2011-12-11T11:10:36Z</time>
      </trkpt>
      <trkpt lat="43.57306" lon="6.10805">
        <ele>454.84</ele>
        <time>2011-12-11T11:11:02Z</time>
      </trkpt>
      <trkpt lat="43.5728" lon="6.10811">
        <ele>457.24</ele>
        <time>2011-12-11T11:11:30Z</time>
      </trkpt>
      <trkpt lat="43.57254" lon="6.10817">
        <ele>458.21</ele>
        <time>2011-12-11T11:11:56Z</time>
      </trkpt>
      <trkpt lat="43.57229" lon="6.10816">
        <ele>458.69</ele>
        <time>2011-12-11T11:12:21Z</time>
      </trkpt>
      <trkpt lat="43.57207" lon="6.10821">
        <ele>459.17</ele>
        <time>2011-12-11T11:12:39Z</time>
      </trkpt>
      <trkpt lat="43.57183" lon="6.10831">
        <ele>461.09</ele>
        <time>2011-12-11T11:13:05Z</time>
      </trkpt>
      <trkpt lat="43.57165" lon="6.10836">
        <ele>463.01</ele>
        <time>2011-12-11T11:13:38Z</time>
      </trkpt>
      <trkpt lat="43.57145" lon="6.10842">
        <ele>464.93</ele>
        <time>2011-12-11T11:15:39Z</time>
      </trkpt>
      <trkpt lat="43.57116" lon="6.10851">
        <ele>465.9</ele>
        <time>2011-12-11T11:16:04Z</time>
      </trkpt>
      <trkpt lat="43.57101" lon="6.10869">
        <ele>467.34</ele>
        <time>2011-12-11T11:16:35Z</time>
      </trkpt>
      <trkpt lat="43.57095" lon="6.10874">
        <ele>467.82</ele>
        <time>2011-12-11T11:18:18Z</time>
      </trkpt>
      <trkpt lat="43.57063" lon="6.10892">
        <ele>477.91</ele>
        <time>2011-12-11T12:02:15Z</time>
      </trkpt>
      <trkpt lat="43.57064" lon="6.10897">
        <ele>478.39</ele>
        <time>2011-12-11T12:05:05Z</time>
      </trkpt>
      <trkpt lat="43.57077" lon="6.10905">
        <ele>479.35</ele>
        <time>2011-12-11T12:06:55Z</time>
      </trkpt>
      <trkpt lat="43.57091" lon="6.10935">
        <ele>477.91</ele>
        <time>2011-12-11T12:07:32Z</time>
      </trkpt>
      <trkpt lat="43.57104" lon="6.10961">
        <ele>477.91</ele>
        <time>2011-12-11T12:08:03Z</time>
      </trkpt>
      <trkpt lat="43.57121" lon="6.1099">
        <ele>476.95</ele>
        <time>2011-12-11T12:08:32Z</time>
      </trkpt>
      <trkpt lat="43.57136" lon="6.11022">
        <ele>475.99</ele>
        <time>2011-12-11T12:09:03Z</time>
      </trkpt>
      <trkpt lat="43.57143" lon="6.11052">
        <ele>476.95</ele>
        <time>2011-12-11T12:09:28Z</time>
      </trkpt>
      <trkpt lat="43.57145" lon="6.11082">
        <ele>477.43</ele>
        <time>2011-12-11T12:10:06Z</time>
      </trkpt>
      <trkpt lat="43.57139" lon="6.1112">
        <ele>477.43</ele>
        <time>2011-12-11T12:10:47Z</time>
      </trkpt>
      <trkpt lat="43.57132" lon="6.11153">
        <ele>476.95</ele>
        <time>2011-12-11T12:11:18Z</time>
      </trkpt>
      <trkpt lat="43.57132" lon="6.11186">
        <ele>475.51</ele>
        <time>2011-12-11T12:11:49Z</time>
      </trkpt>
      <trkpt lat="43.57135" lon="6.11215">
        <ele>475.99</ele>
        <time>2011-12-11T12:12:15Z</time>
      </trkpt>
      <trkpt lat="43.57152" lon="6.11237">
        <ele>475.03</ele>
        <time>2011-12-11T12:12:41Z</time>
      </trkpt>
      <trkpt lat="43.57169" lon="6.11266">
        <ele>475.03</ele>
        <time>2011-12-11T12:13:09Z</time>
      </trkpt>
      <trkpt lat="43.57193" lon="6.11291">
        <ele>474.07</ele>
        <time>2011-12-11T12:13:34Z</time>
      </trkpt>
      <trkpt lat="43.57227" lon="6.11291">
        <ele>469.74</ele>
        <time>2011-12-11T12:14:10Z</time>
      </trkpt>
      <trkpt lat="43.57258" lon="6.11286">
        <ele>466.86</ele>
        <time>2011-12-11T12:14:48Z</time>
      </trkpt>
      <trkpt lat="43.57289" lon="6.11282">
        <ele>464.93</ele>
        <time>2011-12-11T12:15:23Z</time>
      </trkpt>
      <trkpt lat="43.57323" lon="6.11273">
        <ele>463.49</ele>
        <time>2011-12-11T12:15:57Z</time>
      </trkpt>
      <trkpt lat="43.5735" lon="6.11261">
        <ele>462.05</ele>
        <time>2011-12-11T12:16:25Z</time>
      </trkpt>
      <trkpt lat="43.5738" lon="6.11257">
        <ele>461.09</ele>
        <time>2011-12-11T12:17:00Z</time>
      </trkpt>
      <trkpt lat="43.57416" lon="6.11245">
        <ele>457.72</ele>
        <time>2011-12-11T12:17:42Z</time>
      </trkpt>
      <trkpt lat="43.57451" lon="6.11235">
        <ele>456.28</ele>
        <time>2011-12-11T12:18:12Z</time>
      </trkpt>
      <trkpt lat="43.57479" lon="6.11236">
        <ele>454.36</ele>
        <time>2011-12-11T12:18:39Z</time>
      </trkpt>
      <trkpt lat="43.57506" lon="6.1124">
        <ele>453.4</ele>
        <time>2011-12-11T12:19:06Z</time>
      </trkpt>
      <trkpt lat="43.57527" lon="6.11236">
        <ele>451.48</ele>
        <time>2011-12-11T12:19:28Z</time>
      </trkpt>
      <trkpt lat="43.57551" lon="6.11232">
        <ele>451</ele>
        <time>2011-12-11T12:19:59Z</time>
      </trkpt>
      <trkpt lat="43.57582" lon="6.11225">
        <ele>451.48</ele>
        <time>2011-12-11T12:20:28Z</time>
      </trkpt>
      <trkpt lat="43.5761" lon="6.11209">
        <ele>451.96</ele>
        <time>2011-12-11T12:20:56Z</time>
      </trkpt>
      <trkpt lat="43.57635" lon="6.11199">
        <ele>453.88</ele>
        <time>2011-12-11T12:21:33Z</time>
      </trkpt>
      <trkpt lat="43.57671" lon="6.11198">
        <ele>456.76</ele>
        <time>2011-12-11T12:22:20Z</time>
      </trkpt>
      <trkpt lat="43.57707" lon="6.11198">
        <ele>457.24</ele>
        <time>2011-12-11T12:22:54Z</time>
      </trkpt>
      <trkpt lat="43.57736" lon="6.11214">
        <ele>456.76</ele>
        <time>2011-12-11T12:23:32Z</time>
      </trkpt>
      <trkpt lat="43.57737" lon="6.11256">
        <ele>456.76</ele>
        <time>2011-12-11T12:24:01Z</time>
      </trkpt>
      <trkpt lat="43.57742" lon="6.11283">
        <ele>455.8</ele>
        <time>2011-12-11T12:25:08Z</time>
      </trkpt>
      <trkpt lat="43.57739" lon="6.11318">
        <ele>455.32</ele>
        <time>2011-12-11T12:25:32Z</time>
      </trkpt>
      <trkpt lat="43.57738" lon="6.11348">
        <ele>454.84</ele>
        <time>2011-12-11T12:25:54Z</time>
      </trkpt>
      <trkpt lat="43.57738" lon="6.11378">
        <ele>455.32</ele>
        <time>2011-12-11T12:26:17Z</time>
      </trkpt>
      <trkpt lat="43.57737" lon="6.11382">
        <ele>453.88</ele>
        <time>2011-12-11T12:26:20Z</time>
      </trkpt>
      <trkpt lat="43.57739" lon="6.11397">
        <ele>454.84</ele>
        <time>2011-12-11T12:26:34Z</time>
      </trkpt>
      <trkpt lat="43.57733" lon="6.11426">
        <ele>454.36</ele>
        <time>2011-12-11T12:27:16Z</time>
      </trkpt>
      <trkpt lat="43.57731" lon="6.11461">
        <ele>453.4</ele>
        <time>2011-12-11T12:27:41Z</time>
      </trkpt>
      <trkpt lat="43.57729" lon="6.11489">
        <ele>452.92</ele>
        <time>2011-12-11T12:27:59Z</time>
      </trkpt>
      <trkpt lat="43.57728" lon="6.11521">
        <ele>452.44</ele>
        <time>2011-12-11T12:28:20Z</time>
      </trkpt>
      <trkpt lat="43.57728" lon="6.11554">
        <ele>451.96</ele>
        <time>2011-12-11T12:28:45Z</time>
      </trkpt>
      <trkpt lat="43.57746" lon="6.1158">
        <ele>451</ele>
        <time>2011-12-11T12:29:07Z</time>
      </trkpt>
      <trkpt lat="43.57767" lon="6.11589">
        <ele>451.48</ele>
        <time>2011-12-11T12:29:24Z</time>
      </trkpt>
      <trkpt lat="43.57786" lon="6.11596">
        <ele>451.48</ele>
        <time>2011-12-11T12:29:43Z</time>
      </trkpt>
      <trkpt lat="43.57809" lon="6.11608">
        <ele>451.48</ele>
        <time>2011-12-11T12:30:07Z</time>
      </trkpt>
      <trkpt lat="43.57822" lon="6.11633">
        <ele>451.96</ele>
        <time>2011-12-11T12:30:33Z</time>
      </trkpt>
      <trkpt lat="43.57832" lon="6.11668">
        <ele>452.44</ele>
        <time>2011-12-11T12:30:58Z</time>
      </trkpt>
      <trkpt lat="43.57848" lon="6.11725">
        <ele>453.88</ele>
        <time>2011-12-11T12:31:38Z</time>
      </trkpt>
      <trkpt lat="43.57855" lon="6.11761">
        <ele>454.84</ele>
        <time>2011-12-11T12:32:02Z</time>
      </trkpt>
      <trkpt lat="43.57866" lon="6.11796">
        <ele>454.84</ele>
        <time>2011-12-11T12:32:27Z</time>
      </trkpt>
      <trkpt lat="43.57872" lon="6.11816">
        <ele>455.32</ele>
        <time>2011-12-11T12:33:26Z</time>
      </trkpt>
      <trkpt lat="43.57867" lon="6.11851">
        <ele>455.32</ele>
        <time>2011-12-11T12:33:58Z</time>
      </trkpt>
      <trkpt lat="43.57862" lon="6.11883">
        <ele>454.84</ele>
        <time>2011-12-11T12:34:22Z</time>
      </trkpt>
      <trkpt lat="43.57861" lon="6.11921">
        <ele>453.4</ele>
        <time>2011-12-11T12:34:47Z</time>
      </trkpt>
      <trkpt lat="43.57863" lon="6.11952">
        <ele>452.92</ele>
        <time>2011-12-11T12:35:14Z</time>
      </trkpt>
      <trkpt lat="43.57857" lon="6.1198">
        <ele>452.92</ele>
        <time>2011-12-11T12:35:38Z</time>
      </trkpt>
      <trkpt lat="43.57857" lon="6.12011">
        <ele>453.88</ele>
        <time>2011-12-11T12:36:00Z</time>
      </trkpt>
      <trkpt lat="43.57856" lon="6.12049">
        <ele>454.84</ele>
        <time>2011-12-11T12:36:29Z</time>
      </trkpt>
      <trkpt lat="43.5784" lon="6.12077">
        <ele>454.84</ele>
        <time>2011-12-11T12:36:53Z</time>
      </trkpt>
      <trkpt lat="43.57828" lon="6.12105">
        <ele>453.88</ele>
        <time>2011-12-11T12:37:17Z</time>
      </trkpt>
      <trkpt lat="43.57812" lon="6.12127">
        <ele>452.92</ele>
        <time>2011-12-11T12:37:45Z</time>
      </trkpt>
      <trkpt lat="43.578" lon="6.12132">
        <ele>452.92</ele>
        <time>2011-12-11T12:39:24Z</time>
      </trkpt>
      <trkpt lat="43.57777" lon="6.12142">
        <ele>451.48</ele>
        <time>2011-12-11T12:39:57Z</time>
      </trkpt>
      <trkpt lat="43.57753" lon="6.12148">
        <ele>450.03</ele>
        <time>2011-12-11T12:40:21Z</time>
      </trkpt>
      <trkpt lat="43.57732" lon="6.12155">
        <ele>448.11</ele>
        <time>2011-12-11T12:40:41Z</time>
      </trkpt>
      <trkpt lat="43.5771" lon="6.12161">
        <ele>446.19</ele>
        <time>2011-12-11T12:41:04Z</time>
      </trkpt>
      <trkpt lat="43.57689" lon="6.12167">
        <ele>443.79</ele>
        <time>2011-12-11T12:41:28Z</time>
      </trkpt>
      <trkpt lat="43.57673" lon="6.12181">
        <ele>442.34</ele>
        <time>2011-12-11T12:41:48Z</time>
      </trkpt>
      <trkpt lat="43.57657" lon="6.12199">
        <ele>440.9</ele>
        <time>2011-12-11T12:42:05Z</time>
      </trkpt>
      <trkpt lat="43.57641" lon="6.12212">
        <ele>441.38</ele>
        <time>2011-12-11T12:42:30Z</time>
      </trkpt>
      <trkpt lat="43.57623" lon="6.12222">
        <ele>442.82</ele>
        <time>2011-12-11T12:42:51Z</time>
      </trkpt>
      <trkpt lat="43.57603" lon="6.12242">
        <ele>443.31</ele>
        <time>2011-12-11T12:43:16Z</time>
      </trkpt>
      <trkpt lat="43.57579" lon="6.12263">
        <ele>444.75</ele>
        <time>2011-12-11T12:43:47Z</time>
      </trkpt>
      <trkpt lat="43.57561" lon="6.12298">
        <ele>446.19</ele>
        <time>2011-12-11T12:44:19Z</time>
      </trkpt>
      <trkpt lat="43.57544" lon="6.12331">
        <ele>447.15</ele>
        <time>2011-12-11T12:44:50Z</time>
      </trkpt>
      <trkpt lat="43.57526" lon="6.12365">
        <ele>447.15</ele>
        <time>2011-12-11T12:45:19Z</time>
      </trkpt>
      <trkpt lat="43.57505" lon="6.124">
        <ele>447.63</ele>
        <time>2011-12-11T12:45:47Z</time>
      </trkpt>
      <trkpt lat="43.57484" lon="6.12425">
        <ele>449.07</ele>
        <time>2011-12-11T12:46:14Z</time>
      </trkpt>
      <trkpt lat="43.57464" lon="6.1244">
        <ele>450.52</ele>
        <time>2011-12-11T12:46:38Z</time>
      </trkpt>
      <trkpt lat="43.57441" lon="6.12449">
        <ele>451.48</ele>
        <time>2011-12-11T12:47:01Z</time>
      </trkpt>
      <trkpt lat="43.57422" lon="6.12454">
        <ele>452.92</ele>
        <time>2011-12-11T12:47:22Z</time>
      </trkpt>
      <trkpt lat="43.57403" lon="6.12467">
        <ele>453.88</ele>
        <time>2011-12-11T12:47:42Z</time>
      </trkpt>
      <trkpt lat="43.57386" lon="6.12478">
        <ele>454.36</ele>
        <time>2011-12-11T12:48:01Z</time>
      </trkpt>
      <trkpt lat="43.57367" lon="6.12496">
        <ele>454.84</ele>
        <time>2011-12-11T12:48:22Z</time>
      </trkpt>
      <trkpt lat="43.57341" lon="6.1251">
        <ele>453.88</ele>
        <time>2011-12-11T12:48:50Z</time>
      </trkpt>
      <trkpt lat="43.57321" lon="6.12511">
        <ele>452.92</ele>
        <time>2011-12-11T12:49:49Z</time>
      </trkpt>
      <trkpt lat="43.57306" lon="6.12523">
        <ele>451.96</ele>
        <time>2011-12-11T12:50:13Z</time>
      </trkpt>
      <trkpt lat="43.57286" lon="6.12535">
        <ele>450.52</ele>
        <time>2011-12-11T12:50:36Z</time>
      </trkpt>
      <trkpt lat="43.57266" lon="6.12555">
        <ele>449.55</ele>
        <time>2011-12-11T12:50:58Z</time>
      </trkpt>
      <trkpt lat="43.57248" lon="6.12571">
        <ele>448.59</ele>
        <time>2011-12-11T12:51:18Z</time>
      </trkpt>
      <trkpt lat="43.5723" lon="6.12586">
        <ele>447.63</ele>
        <time>2011-12-11T12:51:38Z</time>
      </trkpt>
      <trkpt lat="43.57211" lon="6.12606">
        <ele>446.19</ele>
        <time>2011-12-11T12:52:01Z</time>
      </trkpt>
      <trkpt lat="43.57193" lon="6.12628">
        <ele>444.75</ele>
        <time>2011-12-11T12:52:23Z</time>
      </trkpt>
      <trkpt lat="43.57177" lon="6.12648">
        <ele>443.79</ele>
        <time>2011-12-11T12:52:42Z</time>
      </trkpt>
      <trkpt lat="43.5716" lon="6.12669">
        <ele>442.82</ele>
        <time>2011-12-11T12:53:02Z</time>
      </trkpt>
      <trkpt lat="43.57141" lon="6.12683">
        <ele>439.94</ele>
        <time>2011-12-11T12:53:24Z</time>
      </trkpt>
      <trkpt lat="43.57123" lon="6.12699">
        <ele>437.06</ele>
        <time>2011-12-11T12:53:46Z</time>
      </trkpt>
      <trkpt lat="43.57106" lon="6.12717">
        <ele>433.69</ele>
        <time>2011-12-11T12:54:16Z</time>
      </trkpt>
      <trkpt lat="43.57088" lon="6.12733">
        <ele>430.81</ele>
        <time>2011-12-11T12:54:43Z</time>
      </trkpt>
      <trkpt lat="43.57072" lon="6.12755">
        <ele>429.37</ele>
        <time>2011-12-11T12:55:08Z</time>
      </trkpt>
      <trkpt lat="43.57057" lon="6.12798">
        <ele>427.92</ele>
        <time>2011-12-11T12:55:45Z</time>
      </trkpt>
      <trkpt lat="43.57041" lon="6.12834">
        <ele>426.96</ele>
        <time>2011-12-11T12:56:15Z</time>
      </trkpt>
      <trkpt lat="43.57031" lon="6.12866">
        <ele>426</ele>
        <time>2011-12-11T12:56:48Z</time>
      </trkpt>
      <trkpt lat="43.57031" lon="6.12894">
        <ele>425.52</ele>
        <time>2011-12-11T12:57:41Z</time>
      </trkpt>
      <trkpt lat="43.57027" lon="6.12922">
        <ele>425.52</ele>
        <time>2011-12-11T12:58:02Z</time>
      </trkpt>
      <trkpt lat="43.57028" lon="6.12961">
        <ele>424.08</ele>
        <time>2011-12-11T12:58:26Z</time>
      </trkpt>
      <trkpt lat="43.57024" lon="6.12991">
        <ele>422.64</ele>
        <time>2011-12-11T12:58:53Z</time>
      </trkpt>
      <trkpt lat="43.57017" lon="6.13021">
        <ele>421.68</ele>
        <time>2011-12-11T13:00:02Z</time>
      </trkpt>
      <trkpt lat="43.57005" lon="6.13046">
        <ele>420.71</ele>
        <time>2011-12-11T13:00:21Z</time>
      </trkpt>
      <trkpt lat="43.56994" lon="6.13069">
        <ele>418.79</ele>
        <time>2011-12-11T13:00:42Z</time>
      </trkpt>
      <trkpt lat="43.56978" lon="6.13089">
        <ele>417.35</ele>
        <time>2011-12-11T13:01:01Z</time>
      </trkpt>
      <trkpt lat="43.56964" lon="6.13109">
        <ele>415.91</ele>
        <time>2011-12-11T13:01:19Z</time>
      </trkpt>
      <trkpt lat="43.56954" lon="6.13131">
        <ele>414.95</ele>
        <time>2011-12-11T13:01:35Z</time>
      </trkpt>
      <trkpt lat="43.56944" lon="6.13155">
        <ele>414.47</ele>
        <time>2011-12-11T13:01:52Z</time>
      </trkpt>
      <trkpt lat="43.56939" lon="6.1318">
        <ele>413.5</ele>
        <time>2011-12-11T13:02:10Z</time>
      </trkpt>
      <trkpt lat="43.56941" lon="6.13201">
        <ele>412.54</ele>
        <time>2011-12-11T13:02:48Z</time>
      </trkpt>
      <trkpt lat="43.56956" lon="6.13207">
        <ele>412.54</ele>
        <time>2011-12-11T13:04:21Z</time>
      </trkpt>
      <trkpt lat="43.5698" lon="6.1321">
        <ele>413.02</ele>
        <time>2011-12-11T13:04:48Z</time>
      </trkpt>
      <trkpt lat="43.56991" lon="6.13229">
        <ele>413.02</ele>
        <time>2011-12-11T13:05:11Z</time>
      </trkpt>
      <trkpt lat="43.57001" lon="6.13249">
        <ele>413.02</ele>
        <time>2011-12-11T13:05:49Z</time>
      </trkpt>
      <trkpt lat="43.57011" lon="6.13271">
        <ele>412.54</ele>
        <time>2011-12-11T13:06:09Z</time>
      </trkpt>
      <trkpt lat="43.57015" lon="6.13298">
        <ele>412.06</ele>
        <time>2011-12-11T13:06:33Z</time>
      </trkpt>
      <trkpt lat="43.5702" lon="6.13322">
        <ele>412.54</ele>
        <time>2011-12-11T13:06:51Z</time>
      </trkpt>
      <trkpt lat="43.57026" lon="6.13349">
        <ele>412.06</ele>
        <time>2011-12-11T13:07:08Z</time>
      </trkpt>
      <trkpt lat="43.57032" lon="6.13372">
        <ele>412.54</ele>
        <time>2011-12-11T13:07:24Z</time>
      </trkpt>
      <trkpt lat="43.57038" lon="6.13399">
        <ele>412.54</ele>
        <time>2011-12-11T13:07:42Z</time>
      </trkpt>
      <trkpt lat="43.57045" lon="6.13424">
        <ele>412.54</ele>
        <time>2011-12-11T13:08:00Z</time>
      </trkpt>
      <trkpt lat="43.57053" lon="6.13451">
        <ele>412.54</ele>
        <time>2011-12-11T13:08:19Z</time>
      </trkpt>
      <trkpt lat="43.57058" lon="6.13479">
        <ele>412.54</ele>
        <time>2011-12-11T13:08:39Z</time>
      </trkpt>
      <trkpt lat="43.57073" lon="6.13491">
        <ele>413.5</ele>
        <time>2011-12-11T13:09:22Z</time>
      </trkpt>
      <trkpt lat="43.57082" lon="6.13514">
        <ele>413.02</ele>
        <time>2011-12-11T13:09:42Z</time>
      </trkpt>
      <trkpt lat="43.57091" lon="6.13537">
        <ele>411.58</ele>
        <time>2011-12-11T13:10:05Z</time>
      </trkpt>
      <trkpt lat="43.57102" lon="6.1356">
        <ele>411.58</ele>
        <time>2011-12-11T13:10:26Z</time>
      </trkpt>
      <trkpt lat="43.5711" lon="6.13581">
        <ele>411.58</ele>
        <time>2011-12-11T13:10:45Z</time>
      </trkpt>
      <trkpt lat="43.57119" lon="6.13605">
        <ele>411.1</ele>
        <time>2011-12-11T13:11:04Z</time>
      </trkpt>
      <trkpt lat="43.57128" lon="6.13628">
        <ele>410.62</ele>
        <time>2011-12-11T13:11:25Z</time>
      </trkpt>
      <trkpt lat="43.57129" lon="6.13657">
        <ele>410.14</ele>
        <time>2011-12-11T13:11:45Z</time>
      </trkpt>
      <trkpt lat="43.57127" lon="6.1369">
        <ele>408.7</ele>
        <time>2011-12-11T13:12:05Z</time>
      </trkpt>
      <trkpt lat="43.57125" lon="6.13713">
        <ele>408.7</ele>
        <time>2011-12-11T13:12:26Z</time>
      </trkpt>
      <trkpt lat="43.57116" lon="6.1374">
        <ele>407.74</ele>
        <time>2011-12-11T13:12:48Z</time>
      </trkpt>
      <trkpt lat="43.57109" lon="6.13765">
        <ele>406.77</ele>
        <time>2011-12-11T13:13:07Z</time>
      </trkpt>
      <trkpt lat="43.57104" lon="6.1379">
        <ele>405.81</ele>
        <time>2011-12-11T13:13:27Z</time>
      </trkpt>
      <trkpt lat="43.57106" lon="6.1382">
        <ele>406.29</ele>
        <time>2011-12-11T13:13:47Z</time>
      </trkpt>
      <trkpt lat="43.57107" lon="6.13846">
        <ele>405.81</ele>
        <time>2011-12-11T13:14:07Z</time>
      </trkpt>
      <trkpt lat="43.5711" lon="6.13876">
        <ele>405.81</ele>
        <time>2011-12-11T13:14:27Z</time>
      </trkpt>
      <trkpt lat="43.57112" lon="6.13904">
        <ele>405.33</ele>
        <time>2011-12-11T13:14:46Z</time>
      </trkpt>
      <trkpt lat="43.57114" lon="6.1393">
        <ele>404.85</ele>
        <time>2011-12-11T13:15:06Z</time>
      </trkpt>
      <trkpt lat="43.57115" lon="6.13962">
        <ele>404.85</ele>
        <time>2011-12-11T13:15:27Z</time>
      </trkpt>
      <trkpt lat="43.57113" lon="6.1399">
        <ele>404.37</ele>
        <time>2011-12-11T13:15:47Z</time>
      </trkpt>
      <trkpt lat="43.57114" lon="6.14015">
        <ele>404.85</ele>
        <time>2011-12-11T13:16:48Z</time>
      </trkpt>
      <trkpt lat="43.5711" lon="6.14041">
        <ele>405.81</ele>
        <time>2011-12-11T13:17:26Z</time>
      </trkpt>
      <trkpt lat="43.57114" lon="6.14066">
        <ele>406.29</ele>
        <time>2011-12-11T13:17:50Z</time>
      </trkpt>
      <trkpt lat="43.57126" lon="6.14083">
        <ele>407.26</ele>
        <time>2011-12-11T13:18:16Z</time>
      </trkpt>
      <trkpt lat="43.5711" lon="6.14093">
        <ele>406.77</ele>
        <time>2011-12-11T13:18:49Z</time>
      </trkpt>
      <trkpt lat="43.57091" lon="6.14104">
        <ele>405.81</ele>
        <time>2011-12-11T13:19:11Z</time>
      </trkpt>
      <trkpt lat="43.57076" lon="6.141">
        <ele>404.85</ele>
        <time>2011-12-11T13:19:30Z</time>
      </trkpt>
      <trkpt lat="43.57069" lon="6.14076">
        <ele>403.89</ele>
        <time>2011-12-11T13:19:52Z</time>
      </trkpt>
      <trkpt lat="43.57057" lon="6.14057">
        <ele>402.45</ele>
        <time>2011-12-11T13:20:14Z</time>
      </trkpt>
      <trkpt lat="43.57038" lon="6.14067">
        <ele>401.01</ele>
        <time>2011-12-11T13:20:33Z</time>
      </trkpt>
      <trkpt lat="43.57032" lon="6.1409">
        <ele>400.05</ele>
        <time>2011-12-11T13:20:56Z</time>
      </trkpt>
      <trkpt lat="43.57031" lon="6.14121">
        <ele>399.08</ele>
        <time>2011-12-11T13:21:19Z</time>
      </trkpt>
      <trkpt lat="43.57019" lon="6.14146">
        <ele>398.6</ele>
        <time>2011-12-11T13:21:41Z</time>
      </trkpt>
      <trkpt lat="43.57" lon="6.14152">
        <ele>398.12</ele>
        <time>2011-12-11T13:21:59Z</time>
      </trkpt>
      <trkpt lat="43.56992" lon="6.14146">
        <ele>397.64</ele>
        <time>2011-12-11T13:24:11Z</time>
      </trkpt>
      <trkpt lat="43.56988" lon="6.14141">
        <ele>398.12</ele>
        <time>2011-12-11T13:25:32Z</time>
      </trkpt>
      <trkpt lat="43.5697" lon="6.14128">
        <ele>396.2</ele>
        <time>2011-12-11T13:25:52Z</time>
      </trkpt>
      <trkpt lat="43.56951" lon="6.14116">
        <ele>395.72</ele>
        <time>2011-12-11T13:26:09Z</time>
      </trkpt>
      <trkpt lat="43.56933" lon="6.14108">
        <ele>395.72</ele>
        <time>2011-12-11T13:26:28Z</time>
      </trkpt>
      <trkpt lat="43.56913" lon="6.14099">
        <ele>395.24</ele>
        <time>2011-12-11T13:26:45Z</time>
      </trkpt>
      <trkpt lat="43.56896" lon="6.14089">
        <ele>394.76</ele>
        <time>2011-12-11T13:27:03Z</time>
      </trkpt>
      <trkpt lat="43.56876" lon="6.14081">
        <ele>394.76</ele>
        <time>2011-12-11T13:27:21Z</time>
      </trkpt>
      <trkpt lat="43.56861" lon="6.14087">
        <ele>395.24</ele>
        <time>2011-12-11T13:27:52Z</time>
      </trkpt>
      <trkpt lat="43.56854" lon="6.14107">
        <ele>394.76</ele>
        <time>2011-12-11T13:28:22Z</time>
      </trkpt>
      <trkpt lat="43.56845" lon="6.14129">
        <ele>394.76</ele>
        <time>2011-12-11T13:28:38Z</time>
      </trkpt>
      <trkpt lat="43.56833" lon="6.14154">
        <ele>394.76</ele>
        <time>2011-12-11T13:29:00Z</time>
      </trkpt>
      <trkpt lat="43.56823" lon="6.14177">
        <ele>395.24</ele>
        <time>2011-12-11T13:29:16Z</time>
      </trkpt>
      <trkpt lat="43.56813" lon="6.14201">
        <ele>394.76</ele>
        <time>2011-12-11T13:29:33Z</time>
      </trkpt>
      <trkpt lat="43.56802" lon="6.14226">
        <ele>394.76</ele>
        <time>2011-12-11T13:29:51Z</time>
      </trkpt>
      <trkpt lat="43.56791" lon="6.14251">
        <ele>394.76</ele>
        <time>2011-12-11T13:30:09Z</time>
      </trkpt>
      <trkpt lat="43.56779" lon="6.14276">
        <ele>394.76</ele>
        <time>2011-12-11T13:30:31Z</time>
      </trkpt>
      <trkpt lat="43.56767" lon="6.14307">
        <ele>394.76</ele>
        <time>2011-12-11T13:30:57Z</time>
      </trkpt>
      <trkpt lat="43.5676" lon="6.14333">
        <ele>395.24</ele>
        <time>2011-12-11T13:32:09Z</time>
      </trkpt>
      <trkpt lat="43.56749" lon="6.14375">
        <ele>395.24</ele>
        <time>2011-12-11T13:32:54Z</time>
      </trkpt>
      <trkpt lat="43.56743" lon="6.14422">
        <ele>395.24</ele>
        <time>2011-12-11T13:33:23Z</time>
      </trkpt>
      <trkpt lat="43.56748" lon="6.14456">
        <ele>395.72</ele>
        <time>2011-12-11T13:33:54Z</time>
      </trkpt>
      <trkpt lat="43.56757" lon="6.14504">
        <ele>396.2</ele>
        <time>2011-12-11T13:34:31Z</time>
      </trkpt>
      <trkpt lat="43.56763" lon="6.14539">
        <ele>396.2</ele>
        <time>2011-12-11T13:34:56Z</time>
      </trkpt>
      <trkpt lat="43.56763" lon="6.14582">
        <ele>396.2</ele>
        <time>2011-12-11T13:35:27Z</time>
      </trkpt>
      <trkpt lat="43.56763" lon="6.14629">
        <ele>396.2</ele>
        <time>2011-12-11T13:35:54Z</time>
      </trkpt>
      <trkpt lat="43.56762" lon="6.14666">
        <ele>396.2</ele>
        <time>2011-12-11T13:36:33Z</time>
      </trkpt>
      <trkpt lat="43.56762" lon="6.14719">
        <ele>396.2</ele>
        <time>2011-12-11T13:37:12Z</time>
      </trkpt>
      <trkpt lat="43.56761" lon="6.14757">
        <ele>396.2</ele>
        <time>2011-12-11T13:37:32Z</time>
      </trkpt>
      <trkpt lat="43.56761" lon="6.14795">
        <ele>395.72</ele>
        <time>2011-12-11T13:37:57Z</time>
      </trkpt>
      <trkpt lat="43.5676" lon="6.14837">
        <ele>395.72</ele>
        <time>2011-12-11T13:38:24Z</time>
      </trkpt>
      <trkpt lat="43.5676" lon="6.1488">
        <ele>395.24</ele>
        <time>2011-12-11T13:38:53Z</time>
      </trkpt>
      <trkpt lat="43.56759" lon="6.14916">
        <ele>394.76</ele>
        <time>2011-12-11T13:39:17Z</time>
      </trkpt>
      <trkpt lat="43.56757" lon="6.14953">
        <ele>394.76</ele>
        <time>2011-12-11T13:39:41Z</time>
      </trkpt>
      <trkpt lat="43.56758" lon="6.14987">
        <ele>393.8</ele>
        <time>2011-12-11T13:40:11Z</time>
      </trkpt>
      <trkpt lat="43.56758" lon="6.15036">
        <ele>393.32</ele>
        <time>2011-12-11T13:40:40Z</time>
      </trkpt>
      <trkpt lat="43.56759" lon="6.15076">
        <ele>392.36</ele>
        <time>2011-12-11T13:41:08Z</time>
      </trkpt>
      <trkpt lat="43.56758" lon="6.15107">
        <ele>392.36</ele>
        <time>2011-12-11T13:41:30Z</time>
      </trkpt>
      <trkpt lat="43.56759" lon="6.15142">
        <ele>391.87</ele>
        <time>2011-12-11T13:41:54Z</time>
      </trkpt>
      <trkpt lat="43.56759" lon="6.15174">
        <ele>391.87</ele>
        <time>2011-12-11T13:42:16Z</time>
      </trkpt>
      <trkpt lat="43.56757" lon="6.15206">
        <ele>391.39</ele>
        <time>2011-12-11T13:42:38Z</time>
      </trkpt>
      <trkpt lat="43.56755" lon="6.15233">
        <ele>391.39</ele>
        <time>2011-12-11T13:42:55Z</time>
      </trkpt>
      <trkpt lat="43.56755" lon="6.15263">
        <ele>391.39</ele>
        <time>2011-12-11T13:43:14Z</time>
      </trkpt>
      <trkpt lat="43.56754" lon="6.15293">
        <ele>391.39</ele>
        <time>2011-12-11T13:43:35Z</time>
      </trkpt>
      <trkpt lat="43.56754" lon="6.15323">
        <ele>391.87</ele>
        <time>2011-12-11T13:43:53Z</time>
      </trkpt>
      <trkpt lat="43.56755" lon="6.15349">
        <ele>391.87</ele>
        <time>2011-12-11T13:44:14Z</time>
      </trkpt>
      <trkpt lat="43.56755" lon="6.15379">
        <ele>391.87</ele>
        <time>2011-12-11T13:44:39Z</time>
      </trkpt>
      <trkpt lat="43.56756" lon="6.15416">
        <ele>392.36</ele>
        <time>2011-12-11T13:45:02Z</time>
      </trkpt>
      <trkpt lat="43.56755" lon="6.15444">
        <ele>392.36</ele>
        <time>2011-12-11T13:45:23Z</time>
      </trkpt>
      <trkpt lat="43.56755" lon="6.15472">
        <ele>392.36</ele>
        <time>2011-12-11T13:45:45Z</time>
      </trkpt>
      <trkpt lat="43.56755" lon="6.15502">
        <ele>392.84</ele>
        <time>2011-12-11T13:46:07Z</time>
      </trkpt>
      <trkpt lat="43.56754" lon="6.15535">
        <ele>393.32</ele>
        <time>2011-12-11T13:46:28Z</time>
      </trkpt>
      <trkpt lat="43.56755" lon="6.15563">
        <ele>393.32</ele>
        <time>2011-12-11T13:46:47Z</time>
      </trkpt>
      <trkpt lat="43.56754" lon="6.1559">
        <ele>393.8</ele>
        <time>2011-12-11T13:47:07Z</time>
      </trkpt>
      <trkpt lat="43.56753" lon="6.15619">
        <ele>393.8</ele>
        <time>2011-12-11T13:47:27Z</time>
      </trkpt>
      <trkpt lat="43.56754" lon="6.15649">
        <ele>394.28</ele>
        <time>2011-12-11T13:47:48Z</time>
      </trkpt>
      <trkpt lat="43.56759" lon="6.15676">
        <ele>395.24</ele>
        <time>2011-12-11T13:48:08Z</time>
      </trkpt>
      <trkpt lat="43.56764" lon="6.15702">
        <ele>394.76</ele>
        <time>2011-12-11T13:48:27Z</time>
      </trkpt>
      <trkpt lat="43.56773" lon="6.15727">
        <ele>394.76</ele>
        <time>2011-12-11T13:48:46Z</time>
      </trkpt>
      <trkpt lat="43.56781" lon="6.15752">
        <ele>394.76</ele>
        <time>2011-12-11T13:49:05Z</time>
      </trkpt>
      <trkpt lat="43.56798" lon="6.15775">
        <ele>394.76</ele>
        <time>2011-12-11T13:49:31Z</time>
      </trkpt>
      <trkpt lat="43.56814" lon="6.15804">
        <ele>394.76</ele>
        <time>2011-12-11T13:49:58Z</time>
      </trkpt>
      <trkpt lat="43.56831" lon="6.15826">
        <ele>394.28</ele>
        <time>2011-12-11T13:50:20Z</time>
      </trkpt>
      <trkpt lat="43.56852" lon="6.15845">
        <ele>393.8</ele>
        <time>2011-12-11T13:50:43Z</time>
      </trkpt>
      <trkpt lat="43.56873" lon="6.15863">
        <ele>393.8</ele>
        <time>2011-12-11T13:51:08Z</time>
      </trkpt>
      <trkpt lat="43.56885" lon="6.15881">
        <ele>393.32</ele>
        <time>2011-12-11T13:52:09Z</time>
      </trkpt>
      <trkpt lat="43.569" lon="6.15886">
        <ele>392.36</ele>
        <time>2011-12-11T13:53:50Z</time>
      </trkpt>
      <trkpt lat="43.56917" lon="6.15904">
        <ele>391.39</ele>
        <time>2011-12-11T13:54:13Z</time>
      </trkpt>
      <trkpt lat="43.56932" lon="6.15919">
        <ele>390.91</ele>
        <time>2011-12-11T13:54:31Z</time>
      </trkpt>
      <trkpt lat="43.56947" lon="6.15939">
        <ele>390.43</ele>
        <time>2011-12-11T13:54:50Z</time>
      </trkpt>
      <trkpt lat="43.56963" lon="6.15956">
        <ele>389.47</ele>
        <time>2011-12-11T13:55:11Z</time>
      </trkpt>
      <trkpt lat="43.56978" lon="6.15981">
        <ele>388.99</ele>
        <time>2011-12-11T13:55:31Z</time>
      </trkpt>
      <trkpt lat="43.56991" lon="6.16011">
        <ele>388.51</ele>
        <time>2011-12-11T13:55:52Z</time>
      </trkpt>
      <trkpt lat="43.57" lon="6.16032">
        <ele>388.03</ele>
        <time>2011-12-11T13:56:30Z</time>
      </trkpt>
      <trkpt lat="43.57012" lon="6.16057">
        <ele>387.55</ele>
        <time>2011-12-11T13:56:52Z</time>
      </trkpt>
      <trkpt lat="43.57027" lon="6.16091">
        <ele>386.59</ele>
        <time>2011-12-11T13:57:19Z</time>
      </trkpt>
      <trkpt lat="43.57041" lon="6.16123">
        <ele>385.63</ele>
        <time>2011-12-11T13:57:44Z</time>
      </trkpt>
      <trkpt lat="43.57052" lon="6.1615">
        <ele>385.15</ele>
        <time>2011-12-11T13:58:09Z</time>
      </trkpt>
      <trkpt lat="43.57058" lon="6.16181">
        <ele>384.18</ele>
        <time>2011-12-11T13:58:34Z</time>
      </trkpt>
      <trkpt lat="43.57061" lon="6.16221">
        <ele>383.7</ele>
        <time>2011-12-11T13:58:59Z</time>
      </trkpt>
      <trkpt lat="43.57061" lon="6.16254">
        <ele>382.74</ele>
        <time>2011-12-11T13:59:19Z</time>
      </trkpt>
      <trkpt lat="43.57057" lon="6.16283">
        <ele>381.78</ele>
        <time>2011-12-11T13:59:40Z</time>
      </trkpt>
      <trkpt lat="43.57054" lon="6.16312">
        <ele>381.78</ele>
        <time>2011-12-11T14:00:09Z</time>
      </trkpt>
      <trkpt lat="43.57045" lon="6.16349">
        <ele>380.34</ele>
        <time>2011-12-11T14:00:36Z</time>
      </trkpt>
      <trkpt lat="43.57035" lon="6.1638">
        <ele>379.86</ele>
        <time>2011-12-11T14:01:09Z</time>
      </trkpt>
      <trkpt lat="43.57023" lon="6.16404">
        <ele>378.9</ele>
        <time>2011-12-11T14:01:30Z</time>
      </trkpt>
      <trkpt lat="43.57009" lon="6.16426">
        <ele>378.42</ele>
        <time>2011-12-11T14:01:47Z</time>
      </trkpt>
      <trkpt lat="43.56996" lon="6.16446">
        <ele>378.42</ele>
        <time>2011-12-11T14:02:04Z</time>
      </trkpt>
      <trkpt lat="43.56983" lon="6.16464">
        <ele>377.45</ele>
        <time>2011-12-11T14:02:21Z</time>
      </trkpt>
      <trkpt lat="43.5697" lon="6.16482">
        <ele>376.97</ele>
        <time>2011-12-11T14:02:40Z</time>
      </trkpt>
      <trkpt lat="43.56957" lon="6.16501">
        <ele>376.49</ele>
        <time>2011-12-11T14:03:00Z</time>
      </trkpt>
      <trkpt lat="43.5694" lon="6.16522">
        <ele>375.53</ele>
        <time>2011-12-11T14:03:19Z</time>
      </trkpt>
      <trkpt lat="43.56927" lon="6.16545">
        <ele>375.05</ele>
        <time>2011-12-11T14:03:36Z</time>
      </trkpt>
      <trkpt lat="43.56911" lon="6.16564">
        <ele>374.09</ele>
        <time>2011-12-11T14:03:56Z</time>
      </trkpt>
      <trkpt lat="43.56894" lon="6.16585">
        <ele>373.61</ele>
        <time>2011-12-11T14:04:16Z</time>
      </trkpt>
      <trkpt lat="43.56876" lon="6.16612">
        <ele>372.65</ele>
        <time>2011-12-11T14:04:40Z</time>
      </trkpt>
      <trkpt lat="43.56852" lon="6.16646">
        <ele>372.17</ele>
        <time>2011-12-11T14:05:09Z</time>
      </trkpt>
      <trkpt lat="43.56834" lon="6.16669">
        <ele>371.69</ele>
        <time>2011-12-11T14:05:31Z</time>
      </trkpt>
      <trkpt lat="43.56817" lon="6.16688">
        <ele>371.21</ele>
        <time>2011-12-11T14:05:54Z</time>
      </trkpt>
      <trkpt lat="43.56805" lon="6.16717">
        <ele>370.73</ele>
        <time>2011-12-11T14:06:12Z</time>
      </trkpt>
      <trkpt lat="43.56795" lon="6.16744">
        <ele>370.73</ele>
        <time>2011-12-11T14:06:33Z</time>
      </trkpt>
      <trkpt lat="43.56788" lon="6.16772">
        <ele>370.24</ele>
        <time>2011-12-11T14:06:55Z</time>
      </trkpt>
      <trkpt lat="43.56784" lon="6.16806">
        <ele>369.28</ele>
        <time>2011-12-11T14:07:18Z</time>
      </trkpt>
      <trkpt lat="43.56785" lon="6.16838">
        <ele>369.76</ele>
        <time>2011-12-11T14:07:39Z</time>
      </trkpt>
      <trkpt lat="43.56789" lon="6.16865">
        <ele>369.28</ele>
        <time>2011-12-11T14:07:57Z</time>
      </trkpt>
      <trkpt lat="43.56795" lon="6.16894">
        <ele>369.28</ele>
        <time>2011-12-11T14:08:14Z</time>
      </trkpt>
      <trkpt lat="43.56803" lon="6.1692">
        <ele>369.28</ele>
        <time>2011-12-11T14:08:35Z</time>
      </trkpt>
      <trkpt lat="43.56813" lon="6.16954">
        <ele>368.8</ele>
        <time>2011-12-11T14:08:59Z</time>
      </trkpt>
      <trkpt lat="43.56821" lon="6.16987">
        <ele>368.32</ele>
        <time>2011-12-11T14:09:20Z</time>
      </trkpt>
      <trkpt lat="43.56831" lon="6.17022">
        <ele>368.32</ele>
        <time>2011-12-11T14:09:44Z</time>
      </trkpt>
      <trkpt lat="43.56842" lon="6.17057">
        <ele>368.32</ele>
        <time>2011-12-11T14:10:15Z</time>
      </trkpt>
      <trkpt lat="43.56854" lon="6.17105">
        <ele>368.32</ele>
        <time>2011-12-11T14:10:45Z</time>
      </trkpt>
      <trkpt lat="43.56865" lon="6.1713">
        <ele>368.32</ele>
        <time>2011-12-11T14:11:06Z</time>
      </trkpt>
      <trkpt lat="43.56873" lon="6.17163">
        <ele>367.84</ele>
        <time>2011-12-11T14:11:29Z</time>
      </trkpt>
      <trkpt lat="43.56882" lon="6.17201">
        <ele>367.84</ele>
        <time>2011-12-11T14:11:57Z</time>
      </trkpt>
      <trkpt lat="43.56892" lon="6.17253">
        <ele>368.32</ele>
        <time>2011-12-11T14:12:24Z</time>
      </trkpt>
      <trkpt lat="43.56891" lon="6.17283">
        <ele>368.32</ele>
        <time>2011-12-11T14:12:44Z</time>
      </trkpt>
      <trkpt lat="43.56886" lon="6.17313">
        <ele>368.32</ele>
        <time>2011-12-11T14:13:04Z</time>
      </trkpt>
      <trkpt lat="43.56882" lon="6.1734">
        <ele>368.32</ele>
        <time>2011-12-11T14:13:24Z</time>
      </trkpt>
      <trkpt lat="43.56877" lon="6.17368">
        <ele>367.84</ele>
        <time>2011-12-11T14:13:45Z</time>
      </trkpt>
      <trkpt lat="43.56869" lon="6.17399">
        <ele>367.84</ele>
        <time>2011-12-11T14:14:04Z</time>
      </trkpt>
      <trkpt lat="43.56865" lon="6.17431">
        <ele>367.36</ele>
        <time>2011-12-11T14:14:23Z</time>
      </trkpt>
      <trkpt lat="43.56858" lon="6.17459">
        <ele>366.88</ele>
        <time>2011-12-11T14:14:40Z</time>
      </trkpt>
      <trkpt lat="43.56855" lon="6.1749">
        <ele>366.4</ele>
        <time>2011-12-11T14:15:00Z</time>
      </trkpt>
      <trkpt lat="43.5685" lon="6.17517">
        <ele>365.92</ele>
        <time>2011-12-11T14:15:21Z</time>
      </trkpt>
      <trkpt lat="43.56844" lon="6.17547">
        <ele>365.92</ele>
        <time>2011-12-11T14:15:48Z</time>
      </trkpt>
      <trkpt lat="43.5684" lon="6.17572">
        <ele>365.92</ele>
        <time>2011-12-11T14:16:10Z</time>
      </trkpt>
      <trkpt lat="43.5684" lon="6.17605">
        <ele>365.44</ele>
        <time>2011-12-11T14:16:35Z</time>
      </trkpt>
      <trkpt lat="43.56839" lon="6.17648">
        <ele>365.44</ele>
        <time>2011-12-11T14:16:59Z</time>
      </trkpt>
      <trkpt lat="43.56824" lon="6.17669">
        <ele>366.4</ele>
        <time>2011-12-11T14:17:27Z</time>
      </trkpt>
      <trkpt lat="43.56817" lon="6.17689">
        <ele>366.4</ele>
        <time>2011-12-11T14:18:07Z</time>
      </trkpt>
      <trkpt lat="43.56805" lon="6.17705">
        <ele>366.4</ele>
        <time>2011-12-11T14:18:27Z</time>
      </trkpt>
      <trkpt lat="43.5679" lon="6.17723">
        <ele>367.36</ele>
        <time>2011-12-11T14:18:45Z</time>
      </trkpt>
      <trkpt lat="43.56775" lon="6.17742">
        <ele>367.84</ele>
        <time>2011-12-11T14:19:03Z</time>
      </trkpt>
      <trkpt lat="43.5676" lon="6.17757">
        <ele>369.76</ele>
        <time>2011-12-11T14:19:23Z</time>
      </trkpt>
      <trkpt lat="43.56743" lon="6.17774">
        <ele>371.21</ele>
        <time>2011-12-11T14:19:42Z</time>
      </trkpt>
      <trkpt lat="43.56726" lon="6.17786">
        <ele>374.09</ele>
        <time>2011-12-11T14:20:08Z</time>
      </trkpt>
      <trkpt lat="43.56712" lon="6.17773">
        <ele>376.01</ele>
        <time>2011-12-11T14:20:37Z</time>
      </trkpt>
      <trkpt lat="43.56702" lon="6.17793">
        <ele>375.05</ele>
        <time>2011-12-11T14:21:53Z</time>
      </trkpt>
    </trkseg>
  </trk>
</gpx>